createdAt,value
2022-12-18T00:01:27.160Z,6.51
2022-12-18T00:03:55.507Z,6.54
2022-12-18T00:06:23.320Z,6.55
2022-12-18T00:08:50.291Z,6.57
2022-12-18T00:11:23.408Z,6.58
2022-12-18T00:13:50.711Z,6.58
2022-12-18T00:16:23.231Z,6.58
2022-12-18T00:18:51.633Z,6.57
2022-12-18T00:21:19.228Z,6.57
2022-12-18T00:23:48.159Z,6.61
2022-12-18T00:26:24.535Z,6.66
2022-12-18T00:28:53.057Z,6.69
2022-12-18T00:31:22.719Z,6.68
2022-12-18T00:33:52.630Z,6.69
2022-12-18T00:36:24.733Z,6.69
2022-12-18T00:38:54.020Z,6.70
2022-12-18T00:41:40.532Z,6.71
2022-12-18T00:44:10.464Z,6.72
2022-12-18T00:46:37.356Z,6.73
2022-12-18T00:49:05.075Z,6.75
2022-12-18T00:51:31.798Z,6.78
2022-12-18T00:53:58.693Z,6.80
2022-12-18T00:56:26.063Z,6.77
2022-12-18T00:58:53.484Z,6.74
2022-12-18T01:01:20.823Z,6.69
2022-12-18T01:03:47.876Z,6.63
2022-12-18T01:06:17.772Z,6.54
2022-12-18T01:08:45.839Z,6.52
2022-12-18T01:11:18.728Z,6.53
2022-12-18T01:13:45.806Z,6.48
2022-12-18T01:16:15.367Z,6.47
2022-12-18T01:18:42.196Z,6.48
2022-12-18T01:21:11.991Z,6.49
2022-12-18T01:23:39.388Z,6.54
2022-12-18T01:26:08.893Z,6.59
2022-12-18T01:28:36.477Z,6.63
2022-12-18T01:31:18.003Z,6.67
2022-12-18T01:33:45.833Z,6.70
2022-12-18T01:36:20.683Z,6.73
2022-12-18T01:38:48.715Z,6.75
2022-12-18T01:41:18.167Z,6.80
2022-12-18T01:43:57.945Z,6.84
2022-12-18T01:46:25.914Z,6.88
2022-12-18T01:48:57.643Z,6.91
2022-12-18T01:51:26.673Z,6.95
2022-12-18T01:53:53.474Z,6.99
2022-12-18T01:56:22.116Z,7.02
2022-12-18T01:59:03.292Z,7.04
2022-12-18T02:01:32.130Z,7.05
2022-12-18T02:04:21.263Z,7.05
2022-12-18T02:06:55.164Z,7.09
2022-12-18T02:09:34.483Z,7.13
2022-12-18T02:12:09.868Z,7.17
2022-12-18T02:14:50.231Z,7.20
2022-12-18T02:17:28.208Z,7.23
2022-12-18T02:20:07.139Z,7.25
2022-12-18T02:23:04.720Z,7.27
2022-12-18T02:26:09.156Z,7.30
2022-12-18T02:28:48.517Z,7.30
2022-12-18T02:31:22.472Z,7.26
2022-12-18T02:33:52.329Z,7.18
2022-12-18T02:36:21.195Z,7.17
2022-12-18T02:38:49.368Z,7.21
2022-12-18T02:41:17.888Z,7.23
2022-12-18T02:43:56.121Z,7.26
2022-12-18T02:46:32.304Z,7.31
2022-12-18T02:49:17.324Z,7.36
2022-12-18T02:52:01.325Z,7.40
2022-12-18T02:54:28.052Z,7.45
2022-12-18T02:56:59.006Z,7.48
2022-12-18T02:59:36.475Z,7.50
2022-12-18T03:02:18.885Z,7.51
2022-12-18T03:04:52.039Z,7.49
2022-12-18T03:07:27.576Z,7.48
2022-12-18T03:09:56.694Z,7.46
2022-12-18T03:12:33.639Z,7.47
2022-12-18T03:15:17.837Z,7.48
2022-12-18T03:17:54.255Z,7.38
2022-12-18T03:20:24.769Z,7.29
2022-12-18T03:22:56.326Z,7.26
2022-12-18T03:25:24.077Z,7.27
2022-12-18T03:27:59.088Z,7.30
2022-12-18T03:30:30.427Z,7.32
2022-12-18T03:33:12.503Z,7.34
2022-12-18T03:35:43.871Z,7.36
2022-12-18T03:38:12.321Z,7.36
2022-12-18T03:40:46.213Z,7.37
2022-12-18T03:43:23.606Z,7.40
2022-12-18T03:46:07.984Z,7.40
2022-12-18T03:48:40.460Z,7.34
2022-12-18T03:51:19.371Z,7.31
2022-12-18T03:53:54.863Z,7.31
2022-12-18T03:56:29.668Z,7.29
2022-12-18T03:58:58.949Z,7.26
2022-12-18T04:01:34.851Z,7.25
2022-12-18T04:04:03.630Z,7.23
2022-12-18T04:06:37.522Z,7.24
2022-12-18T04:09:06.045Z,7.27
2022-12-18T04:11:35.893Z,7.26
2022-12-18T04:14:07.079Z,7.25
2022-12-18T04:16:34.688Z,7.25
2022-12-18T04:19:02.686Z,7.24
2022-12-18T04:21:34.230Z,7.22
2022-12-18T04:24:01.167Z,7.21
2022-12-18T04:26:28.675Z,7.19
2022-12-18T04:29:04.412Z,7.17
2022-12-18T04:31:31.313Z,7.19
2022-12-18T04:33:58.298Z,7.21
2022-12-18T04:36:28.696Z,7.23
2022-12-18T04:38:55.632Z,7.25
2022-12-18T04:41:22.968Z,7.26
2022-12-18T04:43:50.113Z,7.25
2022-12-18T04:46:16.996Z,7.24
2022-12-18T04:48:46.911Z,7.25
2022-12-18T04:51:13.804Z,7.24
2022-12-18T04:53:40.865Z,7.23
2022-12-18T04:56:16.240Z,7.23
2022-12-18T04:58:45.075Z,7.27
2022-12-18T05:01:14.562Z,7.27
2022-12-18T05:03:42.526Z,7.29
2022-12-18T05:06:10.556Z,7.28
2022-12-18T05:08:37.292Z,7.29
2022-12-18T05:11:16.817Z,7.30
2022-12-18T05:13:45.514Z,7.31
2022-12-18T05:16:12.979Z,7.32
2022-12-18T05:18:39.919Z,7.31
2022-12-18T05:21:07.059Z,7.29
2022-12-18T05:23:37.679Z,7.29
2022-12-18T05:26:07.146Z,7.32
2022-12-18T05:28:35.880Z,7.34
2022-12-18T05:31:04.100Z,7.35
2022-12-18T05:33:33.077Z,7.36
2022-12-18T05:36:04.942Z,7.37
2022-12-18T05:38:33.553Z,7.38
2022-12-18T05:41:00.377Z,7.38
2022-12-18T05:43:28.237Z,7.39
2022-12-18T05:45:55.561Z,7.37
2022-12-18T05:48:23.295Z,7.37
2022-12-18T05:50:51.409Z,7.36
2022-12-18T05:53:21.074Z,7.38
2022-12-18T05:55:48.655Z,7.40
2022-12-18T05:58:16.785Z,7.42
2022-12-18T06:00:46.057Z,7.44
2022-12-18T06:03:14.642Z,7.45
2022-12-18T06:05:45.025Z,7.45
2022-12-18T06:08:12.939Z,7.45
2022-12-18T06:10:40.760Z,7.46
2022-12-18T06:13:08.609Z,7.45
2022-12-18T06:15:39.054Z,7.44
2022-12-18T06:18:06.015Z,7.47
2022-12-18T06:20:33.916Z,7.48
2022-12-18T06:23:01.175Z,7.48
2022-12-18T06:25:28.280Z,7.47
2022-12-18T06:27:55.801Z,7.48
2022-12-18T06:30:22.657Z,7.48
2022-12-18T06:32:56.120Z,7.46
2022-12-18T06:35:24.446Z,7.45
2022-12-18T06:37:51.300Z,7.42
2022-12-18T06:40:18.309Z,7.40
2022-12-18T06:42:45.140Z,7.39
2022-12-18T06:45:12.675Z,7.39
2022-12-18T06:47:39.492Z,7.42
2022-12-18T06:50:06.799Z,7.44
2022-12-18T06:52:34.676Z,7.44
2022-12-18T06:55:01.925Z,7.45
2022-12-18T06:57:28.928Z,7.44
2022-12-18T06:59:55.713Z,7.43
2022-12-18T07:02:22.414Z,7.43
2022-12-18T07:04:52.271Z,7.42
2022-12-18T07:07:19.115Z,7.40
2022-12-18T07:09:45.856Z,7.37
2022-12-18T07:12:12.732Z,7.39
2022-12-18T07:14:39.421Z,7.39
2022-12-18T07:17:06.992Z,7.41
2022-12-18T07:19:34.085Z,7.42
2022-12-18T07:22:01.547Z,7.43
2022-12-18T07:24:29.449Z,7.44
2022-12-18T07:26:56.072Z,7.45
2022-12-18T07:29:22.692Z,7.43
2022-12-18T07:31:50.263Z,7.43
2022-12-18T07:34:17.721Z,7.42
2022-12-18T07:36:44.429Z,7.42
2022-12-18T07:39:12.770Z,7.47
2022-12-18T07:41:46.695Z,7.50
2022-12-18T07:44:16.150Z,7.52
2022-12-18T07:46:42.888Z,7.54
2022-12-18T07:49:09.601Z,7.57
2022-12-18T07:51:36.195Z,7.60
2022-12-18T07:54:02.890Z,7.63
2022-12-18T07:56:31.135Z,7.64
2022-12-18T07:58:59.997Z,7.63
2022-12-18T08:01:27.157Z,7.62
2022-12-18T08:03:54.267Z,7.62
2022-12-18T08:06:23.767Z,7.67
2022-12-18T08:08:56.082Z,7.68
2022-12-18T08:11:24.479Z,7.70
2022-12-18T08:13:51.428Z,7.73
2022-12-18T08:16:19.295Z,7.76
2022-12-18T08:18:47.032Z,7.79
2022-12-18T08:21:16.242Z,7.81
2022-12-18T08:23:44.059Z,7.82
2022-12-18T08:26:12.551Z,7.83
2022-12-18T08:28:40.539Z,7.79
2022-12-18T08:31:08.250Z,7.76
2022-12-18T08:33:36.574Z,7.78
2022-12-18T08:36:07.203Z,7.82
2022-12-18T08:38:34.558Z,7.85
2022-12-18T08:41:01.914Z,7.86
2022-12-18T08:44:01.524Z,7.88
2022-12-18T08:46:34.102Z,7.91
2022-12-18T08:49:00.853Z,7.94
2022-12-18T08:51:27.943Z,7.95
2022-12-18T08:53:54.739Z,7.94
2022-12-18T08:56:21.483Z,7.93
2022-12-18T08:58:48.327Z,7.99
2022-12-18T09:01:15.117Z,8.02
2022-12-18T09:03:42.375Z,7.98
2022-12-18T09:06:09.680Z,7.96
2022-12-18T09:08:38.108Z,7.97
2022-12-18T09:11:05.368Z,7.95
2022-12-18T09:13:32.138Z,7.94
2022-12-18T09:15:59.102Z,7.96
2022-12-18T09:18:26.110Z,7.96
2022-12-18T09:20:54.019Z,7.97
2022-12-18T09:23:22.100Z,7.98
2022-12-18T09:25:48.929Z,7.98
2022-12-18T09:28:18.684Z,8.02
2022-12-18T09:30:49.825Z,8.11
2022-12-18T09:33:17.557Z,8.20
2022-12-18T09:35:45.565Z,8.27
2022-12-18T09:38:18.015Z,8.35
2022-12-18T09:40:48.540Z,8.43
2022-12-18T09:43:23.377Z,8.50
2022-12-18T09:45:59.532Z,8.54
2022-12-18T09:48:37.626Z,8.55
2022-12-18T09:51:23.699Z,8.55
2022-12-18T09:54:00.225Z,8.54
2022-12-18T09:56:29.604Z,8.57
2022-12-18T09:59:01.280Z,8.61
2022-12-18T10:01:38.776Z,8.62
2022-12-18T10:04:09.843Z,8.64
2022-12-18T10:07:04.348Z,8.69
2022-12-18T10:09:39.769Z,8.73
2022-12-18T10:12:33.786Z,8.77
2022-12-18T10:15:23.416Z,8.83
2022-12-18T10:18:00.267Z,8.87
2022-12-18T10:20:49.970Z,8.96
2022-12-18T10:23:48.154Z,9.16
2022-12-18T10:26:15.720Z,9.33
2022-12-18T10:28:45.280Z,9.40
2022-12-18T10:31:20.930Z,9.44
2022-12-18T10:33:51.158Z,9.41
2022-12-18T10:36:17.790Z,9.38
2022-12-18T10:38:44.619Z,9.47
2022-12-18T10:41:23.046Z,9.59
2022-12-18T10:44:09.711Z,9.77
2022-12-18T10:46:36.694Z,9.89
2022-12-18T10:49:03.812Z,9.86
2022-12-18T10:51:38.449Z,9.77
2022-12-18T10:54:17.569Z,9.76
2022-12-18T10:56:45.138Z,9.81
2022-12-18T10:59:15.908Z,9.86
2022-12-18T11:01:56.244Z,9.93
2022-12-18T11:04:24.464Z,10.05
2022-12-18T11:07:11.318Z,10.16
2022-12-18T11:09:40.582Z,10.26
2022-12-18T11:12:18.759Z,10.37
2022-12-18T11:14:51.564Z,10.47
2022-12-18T11:17:32.388Z,10.51
2022-12-18T11:20:04.867Z,10.53
2022-12-18T11:22:33.925Z,10.59
2022-12-18T11:25:32.347Z,10.57
2022-12-18T11:28:27.623Z,10.40
2022-12-18T11:31:11.024Z,10.25
2022-12-18T11:33:53.181Z,10.12
2022-12-18T11:36:33.997Z,10.07
2022-12-18T11:39:10.948Z,10.09
2022-12-18T11:42:06.675Z,10.11
2022-12-18T11:44:59.339Z,10.10
2022-12-18T11:47:53.405Z,10.05
2022-12-18T11:50:25.880Z,10.05
2022-12-18T11:52:56.695Z,10.07
2022-12-18T11:55:34.316Z,10.11
2022-12-18T11:58:10.964Z,10.09
2022-12-18T12:01:01.368Z,10.11
2022-12-18T12:03:31.273Z,10.13
2022-12-18T12:06:16.656Z,10.14
2022-12-18T12:09:19.473Z,10.13
2022-12-18T12:12:01.098Z,10.14
2022-12-18T12:14:45.872Z,10.18
2022-12-18T12:17:31.008Z,10.17
2022-12-18T12:20:12.080Z,10.16
2022-12-18T12:22:59.611Z,10.13
2022-12-18T12:25:32.702Z,10.07
2022-12-18T12:28:21.190Z,10.06
2022-12-18T12:31:02.064Z,10.04
2022-12-18T12:33:58.056Z,10.01
2022-12-18T12:36:35.930Z,9.96
2022-12-18T12:39:09.565Z,9.88
2022-12-18T12:41:57.481Z,9.83
2022-12-18T12:44:37.046Z,9.73
2022-12-18T12:47:14.947Z,9.63
2022-12-18T12:49:49.297Z,9.60
2022-12-18T12:52:37.056Z,9.57
2022-12-18T12:55:13.188Z,9.51
2022-12-18T12:57:52.460Z,9.49
2022-12-18T13:00:21.509Z,9.46
2022-12-18T13:03:23.532Z,9.41
2022-12-18T13:06:05.836Z,9.37
2022-12-18T13:08:54.473Z,9.34
2022-12-18T13:12:02.219Z,9.29
2022-12-18T13:14:36.708Z,9.26
2022-12-18T13:17:20.300Z,9.27
2022-12-18T13:20:09.703Z,9.29
2022-12-18T13:22:47.112Z,9.29
2022-12-18T13:25:37.199Z,9.30
2022-12-18T13:28:13.699Z,9.29
2022-12-18T13:30:47.022Z,9.29
2022-12-18T13:33:22.981Z,9.30
2022-12-18T13:35:50.247Z,9.30
2022-12-18T13:38:24.250Z,9.29
2022-12-18T13:40:50.989Z,9.27
2022-12-18T13:43:21.089Z,9.25
2022-12-18T13:46:18.165Z,9.22
2022-12-18T13:49:02.146Z,9.19
2022-12-18T13:51:32.007Z,9.17
2022-12-18T13:54:19.863Z,9.16
2022-12-18T13:56:48.960Z,9.16
2022-12-18T13:59:23.242Z,9.14
2022-12-18T14:01:55.882Z,9.11
2022-12-18T14:04:24.826Z,9.10
2022-12-18T14:06:56.255Z,9.08
2022-12-18T14:09:27.587Z,9.05
2022-12-18T14:12:15.454Z,9.00
2022-12-18T14:14:46.188Z,8.96
2022-12-18T14:17:13.536Z,8.92
2022-12-18T14:19:49.768Z,8.91
2022-12-18T14:22:22.842Z,8.88
2022-12-18T14:25:11.821Z,8.88
2022-12-18T14:27:42.401Z,8.86
2022-12-18T14:30:45.383Z,8.84
2022-12-18T14:33:19.726Z,8.81
2022-12-18T14:35:58.820Z,8.79
2022-12-18T14:38:40.069Z,8.77
2022-12-18T14:41:12.416Z,8.75
2022-12-18T14:43:41.753Z,8.72
2022-12-18T14:46:27.616Z,8.68
2022-12-18T14:48:55.126Z,8.67
2022-12-18T14:51:31.148Z,8.65
2022-12-18T14:54:04.655Z,8.62
2022-12-18T14:56:31.400Z,8.60
2022-12-18T14:59:04.522Z,8.56
2022-12-18T15:01:51.661Z,8.52
2022-12-18T15:04:40.280Z,8.48
2022-12-18T15:07:11.921Z,8.43
2022-12-18T15:09:40.251Z,8.38
2022-12-18T15:12:25.884Z,8.34
2022-12-18T15:14:52.616Z,8.32
2022-12-18T15:17:23.964Z,8.32
2022-12-18T15:19:59.731Z,8.33
2022-12-18T15:22:29.613Z,8.32
2022-12-18T15:24:58.910Z,8.30
2022-12-18T15:27:36.827Z,8.27
2022-12-18T15:30:25.204Z,8.24
2022-12-18T15:32:53.278Z,8.19
2022-12-18T15:35:23.808Z,8.13
2022-12-18T15:37:52.516Z,8.07
2022-12-18T15:40:22.148Z,8.02
2022-12-18T15:43:11.377Z,7.95
2022-12-18T15:45:38.223Z,7.86
2022-12-18T15:48:21.624Z,7.77
2022-12-18T15:50:48.702Z,7.66
2022-12-18T15:53:15.360Z,7.57
2022-12-18T15:56:01.530Z,7.48
2022-12-18T15:58:28.492Z,7.37
2022-12-18T16:00:57.249Z,7.28
2022-12-18T16:03:23.945Z,7.20
2022-12-18T16:05:51.587Z,7.14
2022-12-18T16:08:18.158Z,7.12
2022-12-18T16:10:44.863Z,7.08
2022-12-18T16:13:13.684Z,7.05
2022-12-18T16:15:40.568Z,7.02
2022-12-18T16:18:08.634Z,7.00
2022-12-18T16:20:35.415Z,6.99
2022-12-18T16:23:02.353Z,6.97
2022-12-18T16:25:29.592Z,6.93
2022-12-18T16:27:57.483Z,6.88
2022-12-18T16:30:28.854Z,6.82
2022-12-18T16:32:59.800Z,6.76
2022-12-18T16:35:27.855Z,6.70
2022-12-18T16:37:54.561Z,6.65
2022-12-18T16:40:21.647Z,6.59
2022-12-18T16:42:48.628Z,6.55
2022-12-18T16:45:18.215Z,6.51
2022-12-18T16:47:45.352Z,6.48
2022-12-18T16:50:12.431Z,6.43
2022-12-18T16:52:39.730Z,6.40
2022-12-18T16:55:07.014Z,6.42
2022-12-18T16:57:34.065Z,6.43
2022-12-18T17:00:05.287Z,6.45
2022-12-18T17:02:33.501Z,6.47
2022-12-18T17:05:01.045Z,6.47
2022-12-18T17:07:29.069Z,6.46
2022-12-18T17:09:56.378Z,6.46
2022-12-18T17:12:23.465Z,6.46
2022-12-18T17:14:50.199Z,6.44
2022-12-18T17:17:22.806Z,6.43
2022-12-18T17:19:52.193Z,6.41
2022-12-18T17:22:19.836Z,6.36
2022-12-18T17:24:47.590Z,6.31
2022-12-18T17:27:14.985Z,6.26
2022-12-18T17:29:47.377Z,6.22
2022-12-18T17:32:15.452Z,6.17
2022-12-18T17:34:42.112Z,6.14
2022-12-18T17:37:09.788Z,6.11
2022-12-18T17:39:36.765Z,6.13
2022-12-18T17:42:04.009Z,6.14
2022-12-18T17:44:32.061Z,6.14
2022-12-18T17:46:58.869Z,6.16
2022-12-18T17:49:25.596Z,6.18
2022-12-18T17:51:52.188Z,6.18
2022-12-18T17:54:18.915Z,6.19
2022-12-18T17:56:45.920Z,6.19
2022-12-18T17:59:13.231Z,6.17
2022-12-18T18:01:44.446Z,6.14
2022-12-18T18:04:13.229Z,6.10
2022-12-18T18:06:40.647Z,6.05
2022-12-18T18:09:16.051Z,5.99
2022-12-18T18:12:04.295Z,5.94
2022-12-18T18:14:31.433Z,5.89
2022-12-18T18:17:01.760Z,5.84
2022-12-18T18:19:33.472Z,5.82
2022-12-18T18:22:01.439Z,5.85
2022-12-18T18:24:29.090Z,5.88
2022-12-18T18:26:55.883Z,5.90
2022-12-18T18:29:26.899Z,5.90
2022-12-18T18:31:54.631Z,5.92
2022-12-18T18:34:27.216Z,5.92
2022-12-18T18:36:54.129Z,5.91
2022-12-18T18:39:21.222Z,5.89
2022-12-18T18:41:48.798Z,5.87
2022-12-18T18:44:17.305Z,5.84
2022-12-18T18:46:45.039Z,5.82
2022-12-18T18:49:13.582Z,5.81
2022-12-18T18:51:41.414Z,5.79
2022-12-18T18:54:08.345Z,5.75
2022-12-18T18:56:56.109Z,5.68
2022-12-18T18:59:29.139Z,5.64
2022-12-18T19:01:59.017Z,5.61
2022-12-18T19:04:25.823Z,5.61
2022-12-18T19:06:53.013Z,5.62
2022-12-18T19:09:21.856Z,5.62
2022-12-18T19:12:07.590Z,5.64
2022-12-18T19:14:34.293Z,5.65
2022-12-18T19:17:00.996Z,5.64
2022-12-18T19:19:28.352Z,5.63
2022-12-18T19:21:55.434Z,5.63
2022-12-18T19:24:22.654Z,5.60
2022-12-18T19:26:49.649Z,5.57
2022-12-18T19:29:16.264Z,5.53
2022-12-18T19:31:43.088Z,5.49
2022-12-18T19:34:09.880Z,5.46
2022-12-18T19:36:39.032Z,5.43
2022-12-18T19:39:14.801Z,5.39
2022-12-18T19:41:42.992Z,5.35
2022-12-18T19:44:15.483Z,5.31
2022-12-18T19:46:43.055Z,5.29
2022-12-18T19:49:11.375Z,5.31
2022-12-18T19:51:43.491Z,5.34
2022-12-18T19:54:16.424Z,5.35
2022-12-18T19:56:44.132Z,5.39
2022-12-18T19:59:10.734Z,5.41
2022-12-18T20:01:37.555Z,5.44
2022-12-18T20:04:05.114Z,5.44
2022-12-18T20:06:46.765Z,5.44
2022-12-18T20:09:13.783Z,5.44
2022-12-18T20:11:41.972Z,5.42
2022-12-18T20:14:14.865Z,5.41
2022-12-18T20:16:44.892Z,5.38
2022-12-18T20:19:13.103Z,5.36
2022-12-18T20:21:41.498Z,5.33
2022-12-18T20:24:09.015Z,5.31
2022-12-18T20:26:35.759Z,5.28
2022-12-18T20:29:02.411Z,5.25
2022-12-18T20:31:29.218Z,5.23
2022-12-18T20:34:00.315Z,5.25
2022-12-18T20:36:29.490Z,5.24
2022-12-18T20:38:59.198Z,5.21
2022-12-18T20:41:37.205Z,5.20
2022-12-18T20:44:10.291Z,5.21
2022-12-18T20:46:50.574Z,5.22
2022-12-18T20:49:17.256Z,5.24
2022-12-18T20:51:43.864Z,5.24
2022-12-18T20:54:15.197Z,5.21
2022-12-18T20:56:45.104Z,5.18
2022-12-18T20:59:13.740Z,5.14
2022-12-18T21:01:48.163Z,5.11
2022-12-18T21:04:18.428Z,5.06
2022-12-18T21:06:50.998Z,5.01
2022-12-18T21:09:20.630Z,4.98
2022-12-18T21:12:06.110Z,4.95
2022-12-18T21:14:33.056Z,4.92
2022-12-18T21:17:03.147Z,4.87
2022-12-18T21:19:30.033Z,4.89
2022-12-18T21:21:57.803Z,4.89
2022-12-18T21:24:25.220Z,4.90
2022-12-18T21:26:52.400Z,4.92
2022-12-18T21:29:24.778Z,4.94
2022-12-18T21:31:54.559Z,4.95
2022-12-18T21:34:27.598Z,4.96
2022-12-18T21:36:56.482Z,4.95
2022-12-18T21:39:25.217Z,4.94
2022-12-18T21:42:11.261Z,4.91
2022-12-18T21:44:42.271Z,4.88
2022-12-18T21:47:21.734Z,4.85
2022-12-18T21:49:52.185Z,4.83
2022-12-18T21:52:19.523Z,4.80
2022-12-18T21:54:48.313Z,4.78
2022-12-18T21:57:14.944Z,4.74
2022-12-18T21:59:43.730Z,4.71
2022-12-18T22:02:17.132Z,4.72
2022-12-18T22:04:44.568Z,4.73
2022-12-18T22:07:11.914Z,4.75
2022-12-18T22:09:39.009Z,4.75
2022-12-18T22:12:06.728Z,4.75
2022-12-18T22:14:33.411Z,4.74
2022-12-18T22:17:00.107Z,4.74
2022-12-18T22:19:28.280Z,4.73
2022-12-18T22:21:55.353Z,4.72
2022-12-18T22:24:26.953Z,4.69
2022-12-18T22:27:01.698Z,4.66
2022-12-18T22:29:48.164Z,4.63
2022-12-18T22:32:29.083Z,4.61
2022-12-18T22:35:08.361Z,4.55
2022-12-18T22:37:37.229Z,4.50
2022-12-18T22:40:06.088Z,4.47
2022-12-18T22:42:34.244Z,4.43
2022-12-18T22:45:00.987Z,4.46
2022-12-18T22:47:30.054Z,4.48
2022-12-18T22:49:58.279Z,4.49
2022-12-18T22:52:25.357Z,4.52
2022-12-18T22:54:53.599Z,4.56
2022-12-18T22:57:22.272Z,4.58
2022-12-18T22:59:50.248Z,4.59
2022-12-18T23:02:20.882Z,4.59
2022-12-18T23:04:47.952Z,4.60
2022-12-18T23:07:15.986Z,4.60
2022-12-18T23:09:42.676Z,4.60
2022-12-18T23:12:15.079Z,4.61
2022-12-18T23:14:42.479Z,4.60
2022-12-18T23:17:12.224Z,4.60
2022-12-18T23:19:49.366Z,4.62
2022-12-18T23:22:17.476Z,4.64
2022-12-18T23:24:44.391Z,4.67
2022-12-18T23:27:11.992Z,4.71
2022-12-18T23:29:40.036Z,4.75
2022-12-18T23:32:07.545Z,4.80
2022-12-18T23:34:34.434Z,4.88
2022-12-18T23:37:01.182Z,4.97
2022-12-18T23:39:28.813Z,5.04
2022-12-18T23:42:00.634Z,5.11
2022-12-18T23:44:27.930Z,5.17
2022-12-18T23:46:54.902Z,5.21
2022-12-18T23:49:21.933Z,5.25
2022-12-18T23:51:49.171Z,5.27
2022-12-18T23:54:16.223Z,5.19
2022-12-18T23:56:43.249Z,5.11
2022-12-18T23:59:10.208Z,5.00
